KSCH

Schenectady County Airport

Schenectady, New York, USA
METAR KSCH 200049Z AUTO 00000KT 10SM CLR M07/M09 A2991
Observed Flight Rules
Jan-20 @ 00:49 UTC (36 minutes ago) Visual Flight Rules
Wind Visibility Clouds
Calm 10 miles
  • Clear skies
Temperatures Readings
Current -7°C / 19°F
Dewpoint -9°C / 16°F
Humidity 86%
Altimeter 29.91" Hg
Pressure 1013 hPa
Elevation 115
METAR KSCH 200049Z AUTO 00000KT 10SM CLR M07/M09 A2991
Observed Flight Rules
Jan-20 @ 00:49 UTC
(36 minutes ago)
VFR
Wind Visibility
Calm 10 miles
Clouds
  • Clear skies
Temperature Dewpoint
-7°C / 19°F -9°C / 16°F
Humidity Altimeter Pressure
86% 29.91" Hg 1013 hPa